Time;durP1;ratioP1;P1;durP2;ratioP2;P2;SDS_P1;SDS_P2;PMS_P1;PMS_P2;Temp;Humidity;BMP_temperature;BMP_pressure;BME280_temperature;BME280_humidity;BME280_pressure;Samples;Min_cycle;Max_cycle;Signal;HPM_P1;HPM_P2
2021/04/04 00:01:54;;;;;;;;;;;;;;;3.83;61.68;99859.75;1741220;82;20382;-77
2021/04/04 00:04:21;;;;;;;;;;;;;;;3.85;61.47;99867.02;1743083;81;20368;-77
2021/04/04 00:06:48;;;;;;;;;;;;;;;3.88;61.18;99860.33;1771726;81;20438;-77
2021/04/04 00:09:19;;;;;;;;;;;;;;;3.91;60.99;99859.30;1751125;81;20503;-80
2021/04/04 00:11:47;;;;;;;;;;;;;;;3.94;60.89;99857.33;1743287;81;22067;-76
2021/04/04 00:14:15;;;;;;;;;;;;;;;3.95;60.71;99851.63;1764470;81;20230;-77
2021/04/04 00:16:44;;;;;;;;;;;;;;;3.97;60.59;99852.41;1748548;80;20246;-76
2021/04/04 00:19:12;;;;;;;;;;;;;;;3.99;60.60;99847.45;1741142;82;20888;-75
2021/04/04 00:21:40;;;;;;;;;;;;;;;4.00;60.39;99841.29;1741243;82;20221;-75
2021/04/04 00:24:08;;;;;;;;;;;;;;;4.04;60.07;99845.85;1730376;80;22068;-76
2021/04/04 00:26:36;;;;;;;;;;;;;;;4.08;59.80;99836.07;1775441;80;20233;-75
2021/04/04 00:29:07;;;;;;;;;;;;;;;4.11;59.48;99838.02;1760019;80;20402;-75
2021/04/04 00:31:35;;;;;;;;;;;;;;;4.16;59.52;99835.98;1785499;80;20684;-77
2021/04/04 00:34:03;;;;;;;;;;;;;;;4.19;59.53;99831.86;1761029;80;20265;-76
2021/04/04 00:36:30;;;;;;;;;;;;;;;4.21;59.26;99832.59;1757094;80;22050;-75
2021/04/04 00:38:58;;;;;;;;;;;;;;;4.24;59.01;99828.48;1785435;80;20398;-74
2021/04/04 00:41:27;;;;;;;;;;;;;;;4.23;59.54;99833.34;1785539;80;20218;-75
2021/04/04 00:43:54;;;;;;;;;;;;;;;4.16;59.73;99832.53;1762704;80;20498;-74
2021/04/04 00:46:22;;;;;;;;;;;;;;;4.12;59.89;99833.16;1754432;82;20499;-74
2021/04/04 00:48:50;;;;;;;;;;;;;;;4.12;59.84;99834.47;1778703;80;21909;-77
2021/04/04 00:51:18;;;;;;;;;;;;;;;4.09;60.09;99828.13;1785419;80;20394;-75
2021/04/04 00:53:46;;;;;;;;;;;;;;;4.08;59.43;99830.38;1778280;80;20217;-75
2021/04/04 00:56:13;;;;;;;;;;;;;;;4.11;59.24;99834.56;1759017;80;20752;-75
2021/04/04 00:58:41;;;;;;;;;;;;;;;4.14;59.21;99840.91;1754532;82;20216;-75
2021/04/04 01:01:09;;;;;;;;;;;;;;;4.13;59.10;99838.76;1769311;80;22074;-76
2021/04/04 01:03:36;;;;;;;;;;;;;;;4.15;58.99;99826.89;1762363;80;20398;-77
2021/04/04 01:06:07;;;;;;;;;;;;;;;4.16;58.76;99826.83;1780429;80;20207;-76
2021/04/04 01:08:36;;;;;;;;;;;;;;;4.19;58.59;99828.41;1754569;80;20484;-78
2021/04/04 01:11:05;;;;;;;;;;;;;;;4.21;58.48;99831.76;1756916;80;20228;-77
2021/04/04 01:13:57;;;;;;;;;;;;;;;4.22;58.35;99830.83;1762141;80;23024;-77
2021/04/04 01:16:27;;;;;;;;;;;;;;;4.19;58.35;99829.25;1778485;80;20224;-77
2021/04/04 01:19:13;;;;;;;;;;;;;;;4.15;58.79;99829.08;1782986;79;20226;-78
2021/04/04 01:21:49;;;;;;;;;;;;;;;4.06;59.14;99824.41;1772696;80;20538;-77
2021/04/04 01:24:32;;;;;;;;;;;;;;;3.99;59.44;99821.80;1752505;80;20212;-77
2021/04/04 01:27:37;;;;;;;;;;;;;;;3.94;59.65;99825.97;1729017;82;21933;-79
2021/04/04 01:30:07;;;;;;;;;;;;;;;3.88;59.83;99824.22;1751740;82;20239;-78
2021/04/04 01:32:35;;;;;;;;;;;;;;;3.84;60.14;99834.00;1767468;80;20250;-78
2021/04/04 01:35:09;;;;;;;;;;;;;;;3.80;60.36;99835.13;1757943;80;20667;-79
2021/04/04 01:37:36;;;;;;;;;;;;;;;3.74;60.45;99838.09;1776697;80;20224;-75
2021/04/04 01:40:06;;;;;;;;;;;;;;;3.70;60.53;99837.45;1752291;82;21931;-76
2021/04/04 01:42:34;;;;;;;;;;;;;;;3.66;60.75;99839.02;1764723;80;21115;-76
2021/04/04 01:45:04;;;;;;;;;;;;;;;3.59;61.02;99843.78;1764741;80;20419;-78
2021/04/04 01:47:32;;;;;;;;;;;;;;;3.54;61.34;99839.28;1765181;80;20693;-78
2021/04/04 01:49:59;;;;;;;;;;;;;;;3.51;61.29;99834.72;1791956;80;20409;-77
2021/04/04 01:52:27;;;;;;;;;;;;;;;3.49;61.53;99822.22;1729777;81;22441;-78
2021/04/04 01:54:55;;;;;;;;;;;;;;;3.48;61.64;99831.83;1734072;81;20262;-77
2021/04/04 01:57:22;;;;;;;;;;;;;;;3.47;61.73;99831.42;1734215;81;20270;-77
2021/04/04 01:59:50;;;;;;;;;;;;;;;3.47;62.00;99841.03;1781649;78;20772;-77
2021/04/04 02:02:17;;;;;;;;;;;;;;;3.44;62.30;99840.75;1765434;80;20507;-77
2021/04/04 02:04:44;;;;;;;;;;;;;;;3.38;62.24;99847.19;1754964;81;21909;-76
2021/04/04 02:07:14;;;;;;;;;;;;;;;3.35;62.38;99843.89;1794093;80;20365;-76
2021/04/04 02:09:42;;;;;;;;;;;;;;;3.33;62.34;99843.98;1742436;81;20426;-76
2021/04/04 02:12:12;;;;;;;;;;;;;;;3.34;62.36;99849.58;1764927;80;20216;-75
2021/04/04 02:14:40;;;;;;;;;;;;;;;3.35;62.47;99848.65;1764652;81;20228;-76
2021/04/04 02:17:07;;;;;;;;;;;;;;;3.37;62.47;99854.61;1764743;80;22988;-76
2021/04/04 02:19:35;;;;;;;;;;;;;;;3.37;62.54;99858.53;1771244;80;20232;-77
2021/04/04 02:22:02;;;;;;;;;;;;;;;3.38;62.55;99854.18;1752394;80;20236;-77
2021/04/04 02:24:30;;;;;;;;;;;;;;;3.38;62.54;99858.94;1731928;82;20706;-78
2021/04/04 02:26:58;;;;;;;;;;;;;;;3.36;62.62;99850.80;1750687;82;20296;-76
2021/04/04 02:29:25;;;;;;;;;;;;;;;3.35;62.68;99853.87;1748155;82;22667;-75
2021/04/04 02:31:59;;;;;;;;;;;;;;;3.37;62.81;99857.69;1766673;81;20220;-76
2021/04/04 02:34:36;;;;;;;;;;;;;;;3.36;62.98;99859.92;1758160;79;20241;-75
2021/04/04 02:37:10;;;;;;;;;;;;;;;3.33;62.99;99861.42;1774692;80;20640;-76
2021/04/04 02:39:53;;;;;;;;;;;;;;;3.31;63.13;99868.04;1736576;82;20265;-77
2021/04/04 02:42:21;;;;;;;;;;;;;;;3.28;63.22;99868.23;1738496;81;22142;-77
2021/04/04 02:44:51;;;;;;;;;;;;;;;3.27;63.36;99864.37;1745195;81;21356;-76
2021/04/04 02:47:22;;;;;;;;;;;;;;;3.26;63.45;99867.91;1781537;80;20306;-76
2021/04/04 02:49:51;;;;;;;;;;;;;;;3.24;63.43;99866.70;1751522;81;21490;-77
2021/04/04 02:52:21;;;;;;;;;;;;;;;3.24;63.58;99870.61;1742837;81;20217;-77
2021/04/04 02:54:53;;;;;;;;;;;;;;;3.23;63.69;99868.94;1743199;81;23553;-78
2021/04/04 02:57:22;;;;;;;;;;;;;;;3.23;63.72;99870.24;1742669;81;21312;-77
2021/04/04 02:59:51;;;;;;;;;;;;;;;3.22;63.92;99875.09;1751596;81;20271;-76
2021/04/04 03:02:19;;;;;;;;;;;;;;;3.23;64.08;99866.80;1731181;82;21601;-78
2021/04/04 03:04:48;;;;;;;;;;;;;;;3.24;64.06;99873.23;1742863;81;20218;-76
2021/04/04 03:07:18;;;;;;;;;;;;;;;3.23;64.14;99869.41;1742777;82;22986;-76
2021/04/04 03:09:49;;;;;;;;;;;;;;;3.21;64.17;99868.66;1760748;81;20494;-76
2021/04/04 03:12:16;;;;;;;;;;;;;;;3.19;64.31;99875.27;1779298;80;20231;-76
2021/04/04 03:14:44;;;;;;;;;;;;;;;3.19;64.41;99882.27;1745801;81;20777;-76
2021/04/04 03:17:11;;;;;;;;;;;;;;;3.13;64.48;99889.50;1746697;81;20221;-79
2021/04/04 03:19:43;;;;;;;;;;;;;;;3.13;64.63;99889.50;1721947;81;21845;-78
2021/04/04 03:22:11;;;;;;;;;;;;;;;3.15;64.59;99897.23;1753043;81;20382;-79
2021/04/04 03:24:39;;;;;;;;;;;;;;;3.13;64.55;99895.19;1764285;80;20249;-77
2021/04/04 03:27:07;;;;;;;;;;;;;;;3.12;64.67;99895.64;1754563;81;21656;-77
2021/04/04 03:29:36;;;;;;;;;;;;;;;3.09;64.69;99894.53;1751936;81;20218;-78
2021/04/04 03:32:06;;;;;;;;;;;;;;;3.08;64.72;99895.89;1763907;81;21838;-77
2021/04/04 03:34:34;;;;;;;;;;;;;;;3.08;64.65;99899.34;1772269;81;20223;-76
2021/04/04 03:37:02;;;;;;;;;;;;;;;3.09;64.69;99898.44;1781495;80;20218;-77
2021/04/04 03:39:29;;;;;;;;;;;;;;;3.09;64.62;99897.13;1770907;81;20684;-76
2021/04/04 03:41:58;;;;;;;;;;;;;;;3.09;64.58;99898.91;1721833;82;20240;-76
2021/04/04 03:44:26;;;;;;;;;;;;;;;3.12;64.58;99897.42;1742838;81;22013;-76
2021/04/04 03:46:54;;;;;;;;;;;;;;;3.15;64.63;99896.77;1742610;82;20222;-73
2021/04/04 03:49:22;;;;;;;;;;;;;;;3.19;64.36;99898.77;1770359;81;20322;-72
2021/04/04 03:51:55;;;;;;;;;;;;;;;3.21;64.19;99893.45;1770942;81;20490;-77
2021/04/04 03:54:23;;;;;;;;;;;;;;;3.23;63.93;99885.91;1752011;80;20304;-76
2021/04/04 03:56:50;;;;;;;;;;;;;;;3.27;63.67;99892.61;1760326;81;22078;-78
2021/04/04 03:59:19;;;;;;;;;;;;;;;3.30;63.57;99887.24;1773240;81;20969;-78
2021/04/04 04:01:47;;;;;;;;;;;;;;;3.34;63.60;99892.66;1772577;81;20219;-78
2021/04/04 04:04:14;;;;;;;;;;;;;;;3.37;63.70;99888.55;1774568;80;20682;-77
2021/04/04 04:06:44;;;;;;;;;;;;;;;3.40;63.77;99891.01;1727057;81;20225;-77
2021/04/04 04:09:14;;;;;;;;;;;;;;;3.45;63.75;99890.27;1746237;81;22066;-78
2021/04/04 04:11:42;;;;;;;;;;;;;;;3.49;63.85;99896.63;1779244;79;20380;-78
2021/04/04 04:14:12;;;;;;;;;;;;;;;3.50;63.99;99890.48;1773348;81;20526;-76
2021/04/04 04:16:40;;;;;;;;;;;;;;;3.52;64.00;99887.30;1773234;81;20680;-77
2021/04/04 04:19:09;;;;;;;;;;;;;;;3.57;64.17;99891.78;1781460;79;20242;-76
2021/04/04 04:21:38;;;;;;;;;;;;;;;3.57;64.42;99896.56;1771944;81;22068;-77
2021/04/04 04:24:08;;;;;;;;;;;;;;;3.58;64.30;99901.33;1758007;81;20270;-77
2021/04/04 04:26:36;;;;;;;;;;;;;;;3.59;64.32;99895.17;1752291;80;20224;-79
2021/04/04 04:29:03;;;;;;;;;;;;;;;3.63;64.37;99900.58;1740814;80;20705;-78
2021/04/04 04:31:33;;;;;;;;;;;;;;;3.67;64.42;99897.71;1721282;82;20251;-77
2021/04/04 04:34:02;;;;;;;;;;;;;;;3.71;64.43;99895.28;1747562;81;23096;-78
2021/04/04 04:36:30;;;;;;;;;;;;;;;3.75;64.43;99898.54;1757479;80;20439;-78
2021/04/04 04:38:58;;;;;;;;;;;;;;;3.77;64.29;99899.31;1786685;80;20468;-77
2021/04/04 04:41:25;;;;;;;;;;;;;;;3.81;63.88;99900.80;1738187;80;20728;-78
2021/04/04 04:43:58;;;;;;;;;;;;;;;3.85;63.71;99908.82;1758081;80;20167;-78
2021/04/04 04:46:25;;;;;;;;;;;;;;;3.90;63.45;99908.09;1750650;80;22076;-79
2021/04/04 04:48:53;;;;;;;;;;;;;;;3.95;63.39;99906.03;1778386;80;20392;-78
2021/04/04 04:51:22;;;;;;;;;;;;;;;4.04;63.39;99917.72;1764895;80;20234;-77
2021/04/04 04:53:49;;;;;;;;;;;;;;;4.11;63.31;99907.28;1718441;82;20543;-75
2021/04/04 04:56:17;;;;;;;;;;;;;;;4.20;63.25;99915.88;1745291;82;20204;-79
2021/04/04 04:58:46;;;;;;;;;;;;;;;4.29;63.21;99917.09;1740047;82;21162;-77
2021/04/04 05:01:17;;;;;;;;;;;;;;;4.38;63.11;99910.47;1742261;82;20235;-77
2021/04/04 05:03:47;;;;;;;;;;;;;;;4.44;63.00;99914.86;1743235;81;20221;-78
2021/04/04 05:06:15;;;;;;;;;;;;;;;4.53;62.94;99910.34;1765279;80;20535;-79
2021/04/04 05:08:44;;;;;;;;;;;;;;;4.64;62.88;99912.80;1740310;81;20221;-77
2021/04/04 05:11:13;;;;;;;;;;;;;;;4.71;62.60;99912.76;1735976;81;22177;-77
2021/04/04 05:13:41;;;;;;;;;;;;;;;4.80;62.41;99909.56;1756846;81;20370;-77
2021/04/04 05:16:12;;;;;;;;;;;;;;;4.86;62.16;99910.03;1758625;81;20259;-78
2021/04/04 05:18:50;;;;;;;;;;;;;;;4.93;62.26;99913.11;1774427;80;20535;-79
2021/04/04 05:21:23;;;;;;;;;;;;;;;5.00;62.15;99908.30;1766042;80;20244;-78
2021/04/04 05:23:59;;;;;;;;;;;;;;;5.08;61.72;99913.89;1723737;79;21910;-79
2021/04/04 05:26:29;;;;;;;;;;;;;;;5.17;60.64;99913.30;1757821;80;20370;-79
2021/04/04 05:29:05;;;;;;;;;;;;;;;5.22;59.35;99913.86;1750745;81;20133;-80
2021/04/04 05:31:32;;;;;;;;;;;;;;;5.28;58.68;99920.47;1749100;81;20547;-80
2021/04/04 05:34:01;;;;;;;;;;;;;;;5.34;57.87;99920.08;1773713;81;20228;-77
2021/04/04 05:36:28;;;;;;;;;;;;;;;5.39;57.56;99926.67;1772811;81;21964;-77
2021/04/04 05:38:57;;;;;;;;;;;;;;;5.45;57.03;99928.07;1751882;81;20277;-78
2021/04/04 05:41:25;;;;;;;;;;;;;;;5.51;56.97;99928.99;1743189;81;20500;-76
2021/04/04 05:43:57;;;;;;;;;;;;;;;5.57;56.69;99933.81;1743331;81;20538;-77
2021/04/04 05:46:29;;;;;;;;;;;;;;;5.63;56.58;99933.89;1742355;82;20222;-77
2021/04/04 05:49:02;;;;;;;;;;;;;;;5.67;56.46;99937.50;1750038;79;22011;-78
2021/04/04 05:51:40;;;;;;;;;;;;;;;5.73;56.50;99928.41;1753679;81;20345;-79
2021/04/04 05:54:41;;;;;;;;;;;;;;;5.81;56.23;99931.83;1744315;81;20222;-75
2021/04/04 05:57:18;;;;;;;;;;;;;;;5.88;56.28;99933.92;1753326;79;21627;-78
2021/04/04 05:59:47;;;;;;;;;;;;;;;5.97;55.99;99936.43;1743689;81;20227;-76
2021/04/04 06:02:52;;;;;;;;;;;;;;;6.01;56.04;99940.55;1776019;80;22008;-76
2021/04/04 06:05:32;;;;;;;;;;;;;;;6.03;55.99;99934.24;1731296;81;20287;-75
2021/04/04 06:08:23;;;;;;;;;;;;;;;6.04;55.34;99945.56;1761796;79;20236;-77
2021/04/04 06:11:04;;;;;;;;;;;;;;;6.01;54.94;99943.16;1743642;81;20727;-72
2021/04/04 06:14:04;;;;;;;;;;;;;;;5.98;54.69;99942.91;1773073;81;20502;-76
2021/04/04 06:16:53;;;;;;;;;;;;;;;5.95;54.50;99950.12;1759324;80;20245;-76
2021/04/04 06:19:44;;;;;;;;;;;;;;;5.96;54.54;99945.23;1715266;82;22546;-74
2021/04/04 06:22:49;;;;;;;;;;;;;;;5.99;54.36;99948.98;1744049;81;20226;-74
2021/04/04 06:25:48;;;;;;;;;;;;;;;6.03;54.38;99943.89;1742656;81;20505;-71
2021/04/04 06:28:46;;;;;;;;;;;;;;;6.09;54.02;99942.65;1742896;81;20310;-73
2021/04/04 06:31:22;;;;;;;;;;;;;;;6.14;53.96;99943.16;1759088;81;21905;-74
2021/04/04 06:33:55;;;;;;;;;;;;;;;6.24;54.02;99952.08;1762444;81;20460;-79
2021/04/04 06:36:29;;;;;;;;;;;;;;;6.27;53.21;99951.86;1754411;81;20231;-79
2021/04/04 06:39:05;;;;;;;;;;;;;;;6.28;53.27;99953.09;1764643;80;20650;-73
2021/04/04 06:41:52;;;;;;;;;;;;;;;6.32;52.87;99952.41;1758137;81;20244;-73
2021/04/04 06:44:42;;;;;;;;;;;;;;;6.39;52.70;99954.14;1779469;80;22059;-80
2021/04/04 06:47:27;;;;;;;;;;;;;;;6.50;52.64;99953.77;1732324;82;20225;-74
2021/04/04 06:50:10;;;;;;;;;;;;;;;6.61;52.61;99953.02;1744802;81;20214;-76
2021/04/04 06:53:08;;;;;;;;;;;;;;;6.73;52.72;99950.84;1744110;80;20708;-73
2021/04/04 06:55:52;;;;;;;;;;;;;;;6.85;52.57;99951.75;1748064;81;20274;-79
2021/04/04 06:58:41;;;;;;;;;;;;;;;7.01;52.68;99951.04;1746701;81;22069;-75
2021/04/04 07:01:18;;;;;;;;;;;;;;;7.14;52.42;99950.98;1757444;81;20389;-75
2021/04/04 07:04:10;;;;;;;;;;;;;;;7.25;51.81;99947.62;1755184;81;20737;-77
2021/04/04 07:06:47;;;;;;;;;;;;;;;7.37;52.11;99948.88;1768334;79;20528;-74
2021/04/04 07:09:53;;;;;;;;;;;;;;;7.52;51.76;99952.15;1724739;82;20246;-75
2021/04/04 07:12:50;;;;;;;;;;;;;;;7.60;50.78;99959.47;1753797;81;23052;-84
2021/04/04 07:15:25;;;;;;;;;;;;;;;7.67;50.51;99955.45;1757218;80;38280;-78
2021/04/04 07:18:08;;;;;;;;;;;;;;;7.77;47.06;99951.19;1772008;81;20290;-77
2021/04/04 07:20:46;;;;;;;;;;;;;;;7.87;46.87;99954.80;1729448;81;21142;-77
2021/04/04 07:23:22;;;;;;;;;;;;;;;7.94;46.89;99963.92;1739839;81;20274;-77
2021/04/04 07:25:59;;;;;;;;;;;;;;;8.03;46.85;99959.28;1752611;80;22901;-75
2021/04/04 07:28:36;;;;;;;;;;;;;;;8.13;46.67;99962.53;1764774;80;20272;-78
2021/04/04 07:31:14;;;;;;;;;;;;;;;8.21;45.91;99957.53;1770076;80;20273;-79
2021/04/04 07:34:08;;;;;;;;;;;;;;;8.27;45.98;99961.83;1776692;80;20838;-80
2021/04/04 07:36:55;;;;;;;;;;;;;;;8.36;45.18;99962.12;1758223;81;20487;-79
2021/04/04 07:39:44;;;;;;;;;;;;;;;8.41;44.45;99965.25;1759451;80;22104;-81
2021/04/04 07:42:45;;;;;;;;;;;;;;;8.49;44.09;99961.08;1758299;80;20220;-80
2021/04/04 07:45:21;;;;;;;;;;;;;;;8.59;43.88;99963.83;1758117;81;20356;-81
2021/04/04 07:48:14;;;;;;;;;;;;;;;8.68;43.33;99963.09;1773525;80;20718;-80
2021/04/04 07:50:59;;;;;;;;;;;;;;;8.74;43.40;99960.47;1773469;80;20274;-78
2021/04/04 07:53:44;;;;;;;;;;;;;;;8.84;43.13;99957.47;1747415;81;22003;-77
2021/04/04 07:56:24;;;;;;;;;;;;;;;8.95;42.75;99956.14;1782353;80;20374;-78
2021/04/04 07:59:04;;;;;;;;;;;;;;;9.15;43.22;99955.38;1763345;80;20220;-79
2021/04/04 08:01:51;;;;;;;;;;;;;;;9.41;38.78;99953.77;1861865;74;20172;-80
2021/04/04 08:04:25;;;;;;;;;;;;;;;9.46;38.04;99945.86;1829780;77;20294;-78
2021/04/04 08:07:00;;;;;;;;;;;;;;;9.59;38.64;99955.39;1833225;76;22055;-81
2021/04/04 08:09:37;;;;;;;;;;;;;;;9.70;39.03;99954.86;1801016;77;20342;-79
2021/04/04 08:12:42;;;;;;;;;;;;;;;9.77;38.92;99953.88;1830750;76;20407;-77
2021/04/04 08:15:19;;;;;;;;;;;;;;;9.82;39.08;99956.13;1836329;77;20220;-80
2021/04/04 08:17:48;;;;;;;;;;;;;;;9.85;38.96;99956.73;1848715;77;20220;-79
2021/04/04 08:20:42;;;;;;;;;;;;;;;9.83;38.83;99952.52;1828175;76;22453;-80
2021/04/04 08:23:19;;;;;;;;;;;;;;;9.81;39.45;99947.37;1845403;77;20805;-80
2021/04/04 08:26:07;;;;;;;;;;;;;;;9.80;39.95;99943.07;1833069;77;20224;-78
2021/04/04 08:28:44;;;;;;;;;;;;;;;9.90;40.21;99943.14;1835327;77;21281;-81
2021/04/04 08:31:18;;;;;;;;;;;;;;;10.06;40.23;99944.86;1843346;77;20293;-80
2021/04/04 08:33:48;;;;;;;;;;;;;;;10.16;39.58;99941.80;1828569;77;22073;-77
2021/04/04 08:36:18;;;;;;;;;;;;;;;10.15;39.10;99944.57;1848626;77;20349;-78
2021/04/04 08:38:46;;;;;;;;;;;;;;;10.11;39.29;99938.70;1827261;77;20295;-79
2021/04/04 08:41:16;;;;;;;;;;;;;;;10.12;38.97;99940.36;1798116;76;21128;-76
2021/04/04 08:43:45;;;;;;;;;;;;;;;10.13;39.10;99934.12;1818027;77;20193;-78
2021/04/04 08:46:25;;;;;;;;;;;;;;;10.14;38.65;99938.94;1824112;76;22121;-80
2021/04/04 08:48:53;;;;;;;;;;;;;;;10.16;38.94;99935.69;1838023;77;21472;-79
2021/04/04 08:51:23;;;;;;;;;;;;;;;10.29;38.95;99935.85;1794961;77;20480;-76
2021/04/04 08:53:51;;;;;;;;;;;;;;;10.43;38.15;99939.14;1796306;77;20274;-76
2021/04/04 08:56:18;;;;;;;;;;;;;;;10.57;37.56;99934.81;1788317;79;20275;-79
2021/04/04 08:58:48;;;;;;;;;;;;;;;10.68;36.94;99928.59;1815224;77;22043;-80
2021/04/04 09:01:21;;;;;;;;;;;;;;;10.81;37.31;99921.30;1812562;78;20295;-76
2021/04/04 09:03:51;;;;;;;;;;;;;;;10.97;36.61;99918.95;1806166;78;20564;-79
2021/04/04 09:06:19;;;;;;;;;;;;;;;11.09;36.55;99909.93;1802366;78;20264;-78
2021/04/04 09:08:46;;;;;;;;;;;;;;;11.25;37.11;99908.58;1799534;79;20237;-82
2021/04/04 09:11:15;;;;;;;;;;;;;;;11.50;36.63;99905.89;1794796;79;20307;-80
2021/04/04 09:13:43;;;;;;;;;;;;;;;11.70;35.70;99907.06;1811668;78;20833;-85
2021/04/04 09:16:13;;;;;;;;;;;;;;;11.87;34.97;99902.91;1812404;79;20283;-83
2021/04/04 09:18:49;;;;;;;;;;;;;;;12.02;34.84;99903.28;1812345;79;20259;-82
2021/04/04 09:21:19;;;;;;;;;;;;;;;12.20;33.70;99906.88;1785750;78;20286;-81
2021/04/04 09:23:52;;;;;;;;;;;;;;;12.24;33.51;99904.27;1784193;79;22085;-81
2021/04/04 09:26:23;;;;;;;;;;;;;;;12.36;34.38;99904.13;1812115;77;21012;-81
2021/04/04 09:28:51;;;;;;;;;;;;;;;12.57;33.32;99889.67;1812123;79;20267;-82
2021/04/04 09:31:22;;;;;;;;;;;;;;;12.61;32.47;99893.68;1771669;79;21075;-77
2021/04/04 09:34:00;;;;;;;;;;;;;;;12.55;33.10;99893.45;1809327;79;20275;-79
2021/04/04 09:36:41;;;;;;;;;;;;;;;12.45;33.26;99898.78;1801150;79;22866;-80
2021/04/04 09:39:09;;;;;;;;;;;;;;;12.36;33.06;99902.30;1795672;79;20270;-80
2021/04/04 09:41:38;;;;;;;;;;;;;;;12.25;33.53;99897.98;1783070;78;20319;-80
2021/04/04 09:44:09;;;;;;;;;;;;;;;12.20;33.32;99898.09;1812024;77;20291;-78
2021/04/04 09:46:51;;;;;;;;;;;;;;;12.10;32.48;99894.64;1807943;77;20275;-81
2021/04/04 09:49:42;;;;;;;;;;;;;;;11.89;32.68;99889.05;1779279;77;22140;-82
2021/04/04 09:52:24;;;;;;;;;;;;;;;11.73;33.47;99891.39;1799131;79;20436;-77
2021/04/04 09:55:04;;;;;;;;;;;;;;;11.60;33.25;99890.37;1806721;79;20707;-77
2021/04/04 09:57:46;;;;;;;;;;;;;;;11.51;33.75;99894.34;1781444;79;20651;-76
2021/04/04 10:00:30;;;;;;;;;;;;;;;11.53;34.62;99888.41;1839655;76;20743;-74
2021/04/04 10:03:00;;;;;;;;;;;;;;;11.53;34.27;99888.41;1805253;79;20259;-76
2021/04/04 10:05:32;;;;;;;;;;;;;;;11.50;33.42;99892.67;1791793;79;22057;-80
2021/04/04 10:08:20;;;;;;;;;;;;;;;11.44;34.01;99902.81;1810079;79;20522;-78
2021/04/04 10:10:53;;;;;;;;;;;;;;;11.44;34.33;99900.17;1802437;79;20276;-79
2021/04/04 10:13:28;;;;;;;;;;;;;;;11.46;34.40;99899.53;1796214;78;20232;-77
2021/04/04 10:15:56;;;;;;;;;;;;;;;11.52;34.12;99898.65;1816649;79;20268;-76
2021/04/04 10:18:25;;;;;;;;;;;;;;;11.55;33.52;99899.20;1793532;79;22045;-80
2021/04/04 10:20:56;;;;;;;;;;;;;;;11.59;33.32;99898.45;1796472;79;20366;-76
2021/04/04 10:23:28;;;;;;;;;;;;;;;11.60;33.28;99895.66;1801324;79;20267;-80
2021/04/04 10:25:58;;;;;;;;;;;;;;;11.69;32.79;99897.47;1785027;79;20281;-82
2021/04/04 10:28:46;;;;;;;;;;;;;;;11.67;32.79;99898.06;1787012;79;20191;-81
2021/04/04 10:31:15;;;;;;;;;;;;;;;11.64;32.88;99890.91;1792835;79;21887;-81
2021/04/04 10:33:43;;;;;;;;;;;;;;;11.65;33.82;99891.25;1803933;77;20365;-78
2021/04/04 10:36:17;;;;;;;;;;;;;;;11.70;33.96;99889.88;1792929;79;20306;-75
2021/04/04 10:38:55;;;;;;;;;;;;;;;11.72;34.27;99883.94;1800802;77;20278;-81
2021/04/04 10:41:31;;;;;;;;;;;;;;;11.68;33.87;99888.34;1801514;77;20230;-81
2021/04/04 10:44:07;;;;;;;;;;;;;;;11.54;33.97;99888.76;1813302;77;23345;-79
2021/04/04 10:46:35;;;;;;;;;;;;;;;11.44;34.36;99888.27;1786758;79;20442;-79
2021/04/04 10:49:06;;;;;;;;;;;;;;;11.43;34.67;99887.92;1780816;79;20282;-80
2021/04/04 10:51:39;;;;;;;;;;;;;;;11.41;34.33;99896.49;1780570;79;20265;-78
2021/04/04 10:54:13;;;;;;;;;;;;;;;11.25;35.60;99896.19;1747255;80;20218;-81
2021/04/04 10:56:42;;;;;;;;;;;;;;;10.95;36.73;99894.97;1748799;79;22863;-78
2021/04/04 10:59:10;;;;;;;;;;;;;;;10.63;37.22;99899.12;1769131;79;21256;-80
2021/04/04 11:01:38;;;;;;;;;;;;;;;10.34;37.92;99905.61;1768027;80;20231;-82
2021/04/04 11:04:05;;;;;;;;;;;;;;;10.17;38.30;99899.09;1759675;80;20377;-81
2021/04/04 11:06:33;;;;;;;;;;;;;;;10.13;37.94;99898.49;1758297;79;20249;-84
2021/04/04 11:09:01;;;;;;;;;;;;;;;10.17;37.62;99900.41;1761584;80;21882;-82
2021/04/04 11:11:28;;;;;;;;;;;;;;;10.19;36.78;99902.42;1775785;79;20335;-84
2021/04/04 11:13:59;;;;;;;;;;;;;;;10.20;37.04;99903.61;1726570;82;20519;-82
2021/04/04 11:16:27;;;;;;;;;;;;;;;10.23;38.27;99906.50;1745352;80;20262;-82
2021/04/04 11:18:57;;;;;;;;;;;;;;;10.19;39.13;99904.58;1763328;79;20550;-82
2021/04/04 11:21:25;;;;;;;;;;;;;;;10.08;39.30;99893.27;1756458;80;22059;-82
2021/04/04 11:23:54;;;;;;;;;;;;;;;9.92;40.09;99897.67;1775376;80;20418;-81
2021/04/04 11:26:33;;;;;;;;;;;;;;;9.89;40.22;99902.73;1765838;79;20274;-74
2021/04/04 11:29:15;;;;;;;;;;;;;;;9.89;39.90;99901.41;1767230;80;20261;-76
2021/04/04 11:31:45;;;;;;;;;;;;;;;9.89;39.48;99900.58;1761458;80;20258;-77
2021/04/04 11:34:34;;;;;;;;;;;;;;;9.85;38.98;99903.97;1765796;80;22063;-76
2021/04/04 11:37:18;;;;;;;;;;;;;;;9.84;38.77;99897.48;1741843;80;20297;-79
2021/04/04 11:40:11;;;;;;;;;;;;;;;9.82;39.57;99909.48;1764726;80;20302;-78
2021/04/04 11:42:41;;;;;;;;;;;;;;;9.76;39.98;99908.70;1779683;80;20273;-76
2021/04/04 11:45:10;;;;;;;;;;;;;;;9.60;40.29;99912.24;1775540;80;20275;-77
2021/04/04 11:47:38;;;;;;;;;;;;;;;9.50;40.24;99905.57;1779515;80;22991;-77
2021/04/04 11:50:26;;;;;;;;;;;;;;;9.40;40.42;99908.13;1773471;79;21215;-77
2021/04/04 11:52:53;;;;;;;;;;;;;;;9.36;41.00;99910.67;1773714;80;20277;-77
2021/04/04 11:55:22;;;;;;;;;;;;;;;9.40;41.02;99908.61;1766110;80;20309;-77
2021/04/04 11:57:50;;;;;;;;;;;;;;;9.42;41.85;99911.95;1752244;80;20276;-77
2021/04/04 12:00:20;;;;;;;;;;;;;;;9.46;42.17;99913.39;1781489;79;22030;-77
2021/04/04 12:03:05;;;;;;;;;;;;;;;9.45;42.37;99903.78;1775200;79;21042;-77
2021/04/04 12:05:35;;;;;;;;;;;;;;;9.44;42.86;99912.17;1780500;79;20251;-79
2021/04/04 12:08:04;;;;;;;;;;;;;;;9.42;42.92;99914.10;1767912;80;20347;-78
2021/04/04 12:10:38;;;;;;;;;;;;;;;9.42;43.31;99907.52;1774949;79;20270;-77
2021/04/04 12:13:16;;;;;;;;;;;;;;;9.48;43.19;99903.55;1766581;80;21901;-81
2021/04/04 12:15:47;;;;;;;;;;;;;;;9.60;43.59;99908.28;1777020;79;20363;-82
2021/04/04 12:18:15;;;;;;;;;;;;;;;9.78;43.13;99898.02;1763811;79;20287;-81
2021/04/04 12:20:42;;;;;;;;;;;;;;;10.04;43.07;99900.14;1775680;79;20960;-79
2021/04/04 12:23:11;;;;;;;;;;;;;;;10.48;42.59;99899.95;1761872;80;20574;-76
2021/04/04 12:25:39;;;;;;;;;;;;;;;10.92;41.12;99891.28;1756707;80;22134;-74
2021/04/04 12:28:07;;;;;;;;;;;;;;;11.32;39.74;99891.20;1773748;78;21047;-79
2021/04/04 12:30:40;;;;;;;;;;;;;;;11.60;39.57;99895.66;1775002;80;20228;-77
2021/04/04 12:33:10;;;;;;;;;;;;;;;11.93;39.04;99885.13;1776423;80;20238;-78
2021/04/04 12:35:46;;;;;;;;;;;;;;;12.27;37.16;99885.95;1770149;80;20277;-76
2021/04/04 12:38:20;;;;;;;;;;;;;;;12.45;36.49;99876.73;1768724;79;23417;-78
2021/04/04 12:40:47;;;;;;;;;;;;;;;12.61;36.86;99879.60;1780472;80;20631;-81
2021/04/04 12:43:14;;;;;;;;;;;;;;;12.75;35.26;99876.97;1778740;79;20253;-82
2021/04/04 12:45:42;;;;;;;;;;;;;;;12.75;35.22;99877.80;1771928;79;21205;-83
2021/04/04 12:48:16;;;;;;;;;;;;;;;12.64;34.79;99879.78;1763762;79;20282;-80
2021/04/04 12:50:50;;;;;;;;;;;;;;;12.35;35.51;99878.09;1761030;80;21993;-77
2021/04/04 12:53:24;;;;;;;;;;;;;;;12.11;36.14;99883.91;1762072;80;20293;-77
2021/04/04 12:55:51;;;;;;;;;;;;;;;11.79;36.73;99885.55;1752951;81;21017;-82
2021/04/04 12:58:20;;;;;;;;;;;;;;;11.57;37.41;99884.50;1766400;80;20239;-81
2021/04/04 13:00:48;;;;;;;;;;;;;;;11.42;38.07;99880.14;1782921;78;20876;-79
2021/04/04 13:03:17;;;;;;;;;;;;;;;11.32;38.84;99880.13;1776904;79;22995;-76
2021/04/04 13:05:47;;;;;;;;;;;;;;;11.27;38.05;99875.73;1779262;79;20219;-81
2021/04/04 13:08:27;;;;;;;;;;;;;;;11.30;38.45;99873.33;1788537;79;20253;-78
2021/04/04 13:10:57;;;;;;;;;;;;;;;11.37;37.68;99869.96;1785959;79;20280;-75
2021/04/04 13:13:30;;;;;;;;;;;;;;;11.33;38.82;99867.75;1790960;78;20277;-75
2021/04/04 13:16:02;;;;;;;;;;;;;;;11.28;39.16;99865.50;1798511;78;20281;-74
2021/04/04 13:18:30;;;;;;;;;;;;;;;11.25;39.28;99867.11;1793295;79;21236;-78
2021/04/04 13:21:02;;;;;;;;;;;;;;;11.32;39.77;99867.41;1787047;79;20949;-77
2021/04/04 13:23:37;;;;;;;;;;;;;;;11.42;39.34;99858.98;1790197;79;20349;-74
2021/04/04 13:26:24;;;;;;;;;;;;;;;11.46;39.66;99857.23;1882115;76;21239;-76